Terminal Aerodrome Forecast
Issued by NWS Portland, OR

Home | Current Version | Previous Version | Text Only | Print | Product List | Glossary On
Versions: 1 2 3 4 5 6 7 8 9 10 11 12 13 14 15 16 17
000
FTUS46 KPQR 241731
TAFTTD
TAF
KTTD 241731Z 2418/2518 09005KT P6SM -SHRA SCT025 OVC040
     FM242000 21005KT P6SM -SHRA SCT030 BKN045
     FM250300 23004KT P6SM -SHRA SCT025 BKN040=

USA.gov is the U.S. government's official web portal to all federal, state and local government web resources and services.